createdAt,value
2022-10-31T00:00:49.356Z,11.60
2022-10-31T00:03:17.824Z,11.61
2022-10-31T00:05:47.500Z,11.65
2022-10-31T00:08:17.171Z,11.72
2022-10-31T00:10:46.475Z,11.74
2022-10-31T00:13:16.009Z,11.74
2022-10-31T00:15:44.065Z,11.76
2022-10-31T00:18:12.502Z,11.71
2022-10-31T00:20:41.165Z,11.65
2022-10-31T00:23:09.567Z,11.55
2022-10-31T00:25:40.246Z,11.46
2022-10-31T00:28:09.679Z,11.50
2022-10-31T00:30:37.749Z,11.40
2022-10-31T00:33:06.222Z,11.46
2022-10-31T00:35:34.696Z,11.39
2022-10-31T00:38:02.716Z,11.40
2022-10-31T00:40:30.767Z,11.46
2022-10-31T00:43:00.265Z,11.41
2022-10-31T00:45:28.502Z,11.43
2022-10-31T00:47:56.667Z,11.46
2022-10-31T00:50:24.822Z,11.47
2022-10-31T00:52:53.021Z,11.36
2022-10-31T00:55:21.099Z,11.37
2022-10-31T00:57:49.287Z,11.30
2022-10-31T01:00:19.174Z,11.36
2022-10-31T01:02:47.835Z,11.34
2022-10-31T01:05:16.348Z,11.34
2022-10-31T01:07:46.122Z,11.29
2022-10-31T01:10:14.143Z,11.32
2022-10-31T01:12:43.515Z,11.33
2022-10-31T01:15:13.252Z,11.27
2022-10-31T01:17:42.732Z,11.27
2022-10-31T01:20:14.609Z,11.32
2022-10-31T01:22:42.798Z,11.31
2022-10-31T01:25:11.666Z,11.30
2022-10-31T01:27:39.633Z,11.22
2022-10-31T01:30:09.793Z,11.23
2022-10-31T01:32:37.775Z,11.29
2022-10-31T01:35:07.635Z,11.29
2022-10-31T01:37:35.716Z,11.19
2022-10-31T01:40:03.926Z,11.12
2022-10-31T01:42:32.052Z,11.17
2022-10-31T01:45:01.818Z,11.20
2022-10-31T01:47:36.154Z,11.19
2022-10-31T01:50:08.822Z,11.04
2022-10-31T01:52:39.744Z,11.01
2022-10-31T01:55:14.366Z,10.97
2022-10-31T01:57:43.980Z,11.00
2022-10-31T02:00:13.519Z,10.91
2022-10-31T02:02:42.285Z,10.89
2022-10-31T02:05:15.262Z,10.91
2022-10-31T02:07:46.643Z,10.91
2022-10-31T02:10:14.940Z,10.94
2022-10-31T02:12:43.318Z,11.02
2022-10-31T02:15:12.166Z,11.01
2022-10-31T02:17:41.614Z,11.06
2022-10-31T02:20:17.812Z,11.08
2022-10-31T02:23:04.451Z,11.08
2022-10-31T02:25:54.007Z,10.91
2022-10-31T02:28:36.950Z,10.84
2022-10-31T02:31:19.395Z,10.76
2022-10-31T02:33:51.577Z,10.77
2022-10-31T02:36:47.854Z,10.87
2022-10-31T02:39:21.276Z,10.92
2022-10-31T02:41:59.468Z,10.93
2022-10-31T02:44:31.636Z,10.91
2022-10-31T02:47:03.627Z,10.88
2022-10-31T02:49:36.174Z,10.81
2022-10-31T02:52:04.143Z,10.88
2022-10-31T02:54:33.322Z,10.92
2022-10-31T02:57:04.404Z,10.93
2022-10-31T02:59:33.563Z,10.89
2022-10-31T03:02:31.773Z,10.90
2022-10-31T03:05:24.954Z,10.84
2022-10-31T03:07:59.395Z,10.76
2022-10-31T03:10:33.801Z,10.70
2022-10-31T03:13:05.546Z,10.59
2022-10-31T03:15:35.999Z,10.59
2022-10-31T03:18:07.986Z,10.55
2022-10-31T03:20:40.330Z,10.49
2022-10-31T03:23:12.770Z,10.55
2022-10-31T03:25:41.800Z,10.47
2022-10-31T03:28:11.726Z,10.40
2022-10-31T03:30:42.990Z,10.41
2022-10-31T03:33:15.211Z,10.36
2022-10-31T03:35:45.173Z,10.38
2022-10-31T03:38:13.934Z,10.41
2022-10-31T03:40:43.183Z,10.49
2022-10-31T03:43:15.259Z,10.54
2022-10-31T03:45:47.100Z,10.52
2022-10-31T03:48:18.355Z,10.54
2022-10-31T03:50:52.741Z,10.54
2022-10-31T03:53:25.262Z,10.53
2022-10-31T03:55:55.727Z,10.53
2022-10-31T03:58:27.552Z,10.50
2022-10-31T04:00:56.855Z,10.44
2022-10-31T04:03:27.781Z,10.37
2022-10-31T04:06:00.864Z,10.35
2022-10-31T04:08:35.753Z,10.30
2022-10-31T04:11:05.285Z,10.27
2022-10-31T04:13:35.925Z,10.29
2022-10-31T04:16:12.681Z,10.35
2022-10-31T04:18:45.704Z,10.30
2022-10-31T04:21:13.806Z,10.34
2022-10-31T04:23:41.838Z,10.32
2022-10-31T04:26:17.243Z,10.34
2022-10-31T04:28:45.690Z,10.27
2022-10-31T04:31:17.175Z,10.26
2022-10-31T04:33:48.470Z,10.27
2022-10-31T04:36:16.542Z,10.26
2022-10-31T04:38:44.588Z,10.27
2022-10-31T04:41:25.811Z,10.27
2022-10-31T04:44:02.523Z,10.28
2022-10-31T04:46:30.944Z,10.23
2022-10-31T04:49:01.496Z,10.25
2022-10-31T04:51:29.508Z,10.24
2022-10-31T04:53:57.872Z,10.26
2022-10-31T04:56:28.919Z,10.21
2022-10-31T04:59:02.372Z,10.20
2022-10-31T05:01:39.940Z,10.22
2022-10-31T05:04:09.429Z,10.14
2022-10-31T05:06:37.891Z,10.19
2022-10-31T05:09:06.219Z,10.14
2022-10-31T05:11:34.262Z,10.09
2022-10-31T05:14:14.595Z,10.07
2022-10-31T05:17:20.850Z,10.12
2022-10-31T05:20:20.995Z,10.04
2022-10-31T05:23:07.608Z,10.01
2022-10-31T05:25:35.592Z,10.05
2022-10-31T05:28:06.022Z,10.06
2022-10-31T05:30:35.517Z,10.09
2022-10-31T05:33:05.048Z,10.02
2022-10-31T05:35:52.823Z,10.09
2022-10-31T05:38:26.861Z,10.11
2022-10-31T05:40:58.591Z,10.10
2022-10-31T05:43:27.218Z,10.07
2022-10-31T05:45:55.834Z,10.00
2022-10-31T05:48:43.762Z,10.06
2022-10-31T05:51:35.719Z,10.11
2022-10-31T05:54:05.345Z,10.14
2022-10-31T05:56:33.414Z,10.06
2022-10-31T05:59:01.963Z,9.95
2022-10-31T06:01:30.070Z,9.97
2022-10-31T06:04:01.035Z,10.01
2022-10-31T06:06:29.099Z,10.04
2022-10-31T06:08:58.576Z,10.03
2022-10-31T06:11:27.605Z,10.01
2022-10-31T06:14:04.846Z,9.94
2022-10-31T06:16:44.166Z,9.85
2022-10-31T06:19:32.700Z,9.93
2022-10-31T06:22:01.074Z,9.96
2022-10-31T06:24:31.528Z,9.96
2022-10-31T06:27:22.658Z,9.97
2022-10-31T06:29:50.665Z,9.98
2022-10-31T06:32:33.149Z,9.96
2022-10-31T06:35:01.120Z,10.01
2022-10-31T06:37:29.193Z,9.98
2022-10-31T06:40:06.217Z,10.00
2022-10-31T06:42:47.360Z,9.99
2022-10-31T06:45:15.632Z,10.03
2022-10-31T06:48:16.490Z,10.02
2022-10-31T06:51:04.958Z,9.94
2022-10-31T06:53:33.994Z,9.95
2022-10-31T06:56:04.330Z,9.95
2022-10-31T06:58:37.555Z,9.98
2022-10-31T07:01:10.682Z,9.96
2022-10-31T07:03:38.781Z,9.95
2022-10-31T07:06:07.402Z,9.93
2022-10-31T07:08:35.450Z,9.97
2022-10-31T07:11:04.940Z,9.98
2022-10-31T07:13:33.768Z,10.00
2022-10-31T07:16:09.011Z,9.97
2022-10-31T07:18:38.176Z,9.98
2022-10-31T07:21:07.012Z,10.03
2022-10-31T07:23:35.161Z,10.03
2022-10-31T07:26:39.736Z,10.08
2022-10-31T07:29:07.822Z,10.09
2022-10-31T07:31:35.856Z,10.10
2022-10-31T07:34:10.928Z,10.17
2022-10-31T07:36:38.876Z,10.20
2022-10-31T07:39:07.284Z,10.24
2022-10-31T07:41:36.863Z,10.27
2022-10-31T07:44:06.545Z,10.26
2022-10-31T07:46:52.907Z,10.32
2022-10-31T07:49:59.242Z,10.37
2022-10-31T07:52:45.959Z,10.36
2022-10-31T07:55:46.286Z,10.40
2022-10-31T07:58:16.401Z,10.41
2022-10-31T08:00:47.358Z,10.46
2022-10-31T08:03:20.845Z,10.46
2022-10-31T08:06:08.130Z,10.51
2022-10-31T08:08:54.548Z,10.58
2022-10-31T08:11:24.111Z,10.64
2022-10-31T08:13:52.129Z,10.70
2022-10-31T08:16:22.178Z,10.71
2022-10-31T08:18:57.886Z,10.77
2022-10-31T08:21:25.896Z,10.82
2022-10-31T08:23:53.867Z,10.87
2022-10-31T08:26:25.014Z,10.88
2022-10-31T08:28:56.615Z,10.84
2022-10-31T08:31:33.496Z,10.88
2022-10-31T08:34:21.187Z,10.99
2022-10-31T08:37:07.828Z,11.06
2022-10-31T08:39:41.681Z,11.13
2022-10-31T08:42:09.714Z,11.15
2022-10-31T08:44:37.742Z,11.21
2022-10-31T08:47:07.333Z,11.27
2022-10-31T08:49:36.263Z,11.30
2022-10-31T08:52:04.740Z,11.38
2022-10-31T08:54:37.640Z,11.45
2022-10-31T08:57:25.597Z,11.56
2022-10-31T08:59:54.665Z,11.61
2022-10-31T09:02:43.135Z,11.69
2022-10-31T09:05:11.183Z,11.72
2022-10-31T09:07:39.292Z,11.79
2022-10-31T09:10:08.034Z,11.85
2022-10-31T09:12:38.432Z,11.90
2022-10-31T09:15:24.862Z,11.84
2022-10-31T09:18:08.628Z,11.94
2022-10-31T09:20:47.336Z,11.95
2022-10-31T09:23:17.413Z,12.07
2022-10-31T09:25:50.190Z,12.11
2022-10-31T09:28:30.544Z,12.17
2022-10-31T09:31:02.578Z,12.26
2022-10-31T09:33:50.004Z,12.32
2022-10-31T09:36:40.733Z,12.28
2022-10-31T09:39:15.765Z,12.36
2022-10-31T09:42:02.170Z,12.45
2022-10-31T09:44:40.760Z,12.53
2022-10-31T09:47:19.013Z,12.61
2022-10-31T09:50:13.405Z,12.74
2022-10-31T09:52:45.835Z,12.81
2022-10-31T09:55:17.289Z,12.86
2022-10-31T09:57:46.436Z,12.87
2022-10-31T10:00:18.820Z,12.95
2022-10-31T10:02:50.029Z,12.97
2022-10-31T10:05:23.104Z,13.14
2022-10-31T10:07:57.595Z,13.24
2022-10-31T10:10:59.587Z,13.37
2022-10-31T10:13:59.836Z,13.44
2022-10-31T10:16:42.413Z,13.51
2022-10-31T10:19:22.366Z,13.61
2022-10-31T10:21:58.230Z,13.71
2022-10-31T10:24:40.224Z,13.76
2022-10-31T10:27:23.572Z,13.85
2022-10-31T10:29:53.531Z,13.86
2022-10-31T10:32:24.639Z,13.98
2022-10-31T10:34:54.711Z,14.03
2022-10-31T10:37:39.578Z,14.03
2022-10-31T10:40:10.719Z,14.16
2022-10-31T10:42:56.995Z,14.22
2022-10-31T10:45:42.299Z,14.29
2022-10-31T10:48:16.762Z,14.37
2022-10-31T10:50:49.717Z,14.44
2022-10-31T10:53:36.451Z,14.48
2022-10-31T10:56:14.226Z,14.54
2022-10-31T10:58:43.535Z,14.59
2022-10-31T11:04:37.804Z,14.72
2022-10-31T11:07:09.134Z,14.76
2022-10-31T11:09:39.368Z,14.79
2022-10-31T11:12:10.857Z,14.82
2022-10-31T11:14:46.175Z,14.85
2022-10-31T11:17:23.076Z,14.90
2022-10-31T11:20:02.084Z,14.96
2022-10-31T11:22:30.134Z,15.00
2022-10-31T11:24:59.546Z,15.04
2022-10-31T11:27:28.489Z,15.12
2022-10-31T11:30:07.037Z,15.18
2022-10-31T11:32:35.168Z,15.22
2022-10-31T11:35:04.704Z,15.26
2022-10-31T11:37:36.358Z,15.29
2022-10-31T11:40:08.036Z,15.35
2022-10-31T11:42:40.315Z,15.42
2022-10-31T11:45:16.719Z,15.47
2022-10-31T11:47:46.519Z,15.51
2022-10-31T11:50:21.218Z,15.58
2022-10-31T11:52:51.323Z,15.65
2022-10-31T11:55:33.637Z,15.72
2022-10-31T11:58:01.951Z,15.78
2022-10-31T12:00:31.984Z,15.82
2022-10-31T12:03:17.355Z,15.83
2022-10-31T12:05:46.574Z,15.84
2022-10-31T12:08:15.400Z,15.88
2022-10-31T12:10:52.556Z,15.93
2022-10-31T12:13:34.870Z,16.01
2022-10-31T12:16:07.111Z,16.07
2022-10-31T12:18:51.611Z,16.07
2022-10-31T12:21:28.698Z,16.11
2022-10-31T12:24:06.027Z,16.15
2022-10-31T12:26:42.760Z,16.19
2022-10-31T12:29:24.321Z,16.20
2022-10-31T12:32:01.729Z,16.20
2022-10-31T12:34:49.466Z,16.26
2022-10-31T12:37:26.434Z,16.32
2022-10-31T12:40:04.137Z,16.38
2022-10-31T12:42:46.058Z,16.43
2022-10-31T12:45:36.042Z,16.48
2022-10-31T12:48:16.641Z,16.53
2022-10-31T12:50:54.346Z,16.57
2022-10-31T12:53:32.361Z,16.59
2022-10-31T12:56:11.793Z,16.57
2022-10-31T12:58:46.076Z,16.61
2022-10-31T13:01:18.277Z,16.63
2022-10-31T13:03:50.832Z,16.61
2022-10-31T13:06:22.508Z,16.63
2022-10-31T13:08:53.386Z,16.64
2022-10-31T13:11:24.351Z,16.68
2022-10-31T13:13:59.571Z,16.65
2022-10-31T13:16:31.293Z,16.71
2022-10-31T13:19:04.874Z,16.76
2022-10-31T13:21:38.091Z,16.75
2022-10-31T13:24:10.723Z,16.73
2022-10-31T13:26:41.007Z,16.74
2022-10-31T13:29:19.356Z,16.76
2022-10-31T13:31:47.437Z,16.74
2022-10-31T13:34:24.206Z,16.75
2022-10-31T13:36:58.158Z,16.76
2022-10-31T13:39:34.377Z,16.79
2022-10-31T13:42:06.423Z,16.76
2022-10-31T13:44:38.726Z,16.77
2022-10-31T13:47:24.479Z,16.71
2022-10-31T13:49:55.636Z,16.72
2022-10-31T13:52:27.353Z,16.73
2022-10-31T13:54:59.018Z,16.71
2022-10-31T13:57:34.555Z,16.79
2022-10-31T14:00:08.856Z,16.87
2022-10-31T14:02:48.627Z,16.93
2022-10-31T14:05:24.524Z,16.91
2022-10-31T14:07:53.705Z,16.94
2022-10-31T14:10:24.982Z,17.00
2022-10-31T14:12:53.130Z,17.02
2022-10-31T14:15:23.726Z,17.07
2022-10-31T14:17:54.207Z,17.09
2022-10-31T14:20:37.115Z,17.13
2022-10-31T14:23:36.762Z,17.19
2022-10-31T14:26:37.714Z,17.23
2022-10-31T14:29:27.589Z,17.26
2022-10-31T14:31:59.539Z,17.24
2022-10-31T14:34:32.039Z,17.16
2022-10-31T14:37:23.571Z,17.17
2022-10-31T14:40:02.873Z,17.14
2022-10-31T14:42:42.308Z,17.16
2022-10-31T14:45:23.283Z,17.17
2022-10-31T14:48:07.042Z,17.04
2022-10-31T14:50:44.999Z,17.01
2022-10-31T14:53:17.018Z,16.98
2022-10-31T14:55:47.976Z,16.94
2022-10-31T14:58:21.442Z,17.00
2022-10-31T15:00:50.301Z,17.03
2022-10-31T15:03:25.920Z,16.95
2022-10-31T15:05:55.428Z,16.93
2022-10-31T15:08:55.941Z,16.91
2022-10-31T15:11:25.710Z,16.89
2022-10-31T15:13:55.029Z,16.88
2022-10-31T15:16:25.190Z,16.90
2022-10-31T15:18:59.147Z,16.85
2022-10-31T15:21:29.401Z,16.83
2022-10-31T15:23:58.995Z,16.71
2022-10-31T15:26:31.471Z,16.68
2022-10-31T15:29:01.225Z,16.57
2022-10-31T15:31:29.242Z,16.58
2022-10-31T15:34:01.927Z,16.53
2022-10-31T15:36:33.300Z,16.53
2022-10-31T15:39:04.047Z,16.51
2022-10-31T15:41:34.974Z,16.47
2022-10-31T15:44:06.744Z,16.46
2022-10-31T15:46:35.740Z,16.43
2022-10-31T15:49:05.234Z,16.40
2022-10-31T15:51:35.934Z,16.37
2022-10-31T15:54:04.183Z,16.34
2022-10-31T15:56:34.331Z,16.30
2022-10-31T15:59:03.474Z,16.26
2022-10-31T16:01:33.188Z,16.23
2022-10-31T16:04:06.340Z,16.19
2022-10-31T16:06:36.357Z,16.16
2022-10-31T16:09:05.555Z,16.11
2022-10-31T16:11:36.736Z,16.07
2022-10-31T16:14:08.419Z,16.04
2022-10-31T16:16:42.907Z,15.98
2022-10-31T16:19:18.961Z,15.93
2022-10-31T16:21:47.347Z,15.89
2022-10-31T16:24:19.256Z,15.83
2022-10-31T16:26:50.932Z,15.78
2022-10-31T16:29:28.049Z,15.73
2022-10-31T16:31:56.206Z,15.71
2022-10-31T16:34:27.095Z,15.66
2022-10-31T16:36:55.714Z,15.61
2022-10-31T16:39:23.915Z,15.59
2022-10-31T16:41:54.281Z,15.54
2022-10-31T16:44:24.713Z,15.51
2022-10-31T16:47:09.921Z,15.42
2022-10-31T16:49:39.343Z,15.44
2022-10-31T16:52:07.440Z,15.42
2022-10-31T16:54:35.644Z,15.40
2022-10-31T16:57:05.260Z,15.37
2022-10-31T16:59:34.249Z,15.36
2022-10-31T17:02:03.667Z,15.34
2022-10-31T17:04:31.953Z,15.32
2022-10-31T17:07:01.378Z,15.29
2022-10-31T17:09:29.368Z,15.26
2022-10-31T17:11:57.418Z,15.23
2022-10-31T17:14:25.507Z,15.19
2022-10-31T17:16:53.564Z,15.12
2022-10-31T17:19:21.599Z,15.07
2022-10-31T17:21:49.739Z,15.03
2022-10-31T17:24:19.138Z,14.99
2022-10-31T17:26:47.222Z,14.96
2022-10-31T17:29:15.272Z,14.91
2022-10-31T17:31:43.715Z,14.88
2022-10-31T17:34:11.780Z,14.85
2022-10-31T17:36:39.816Z,14.83
2022-10-31T17:39:09.676Z,14.82
2022-10-31T17:41:39.087Z,14.80
2022-10-31T17:44:07.515Z,14.77
2022-10-31T17:46:35.627Z,14.70
2022-10-31T17:49:05.125Z,14.68
2022-10-31T17:51:33.389Z,14.66
2022-10-31T17:54:01.669Z,14.63
2022-10-31T17:56:29.658Z,14.61
2022-10-31T17:58:59.295Z,14.59
2022-10-31T18:01:27.571Z,14.56
2022-10-31T18:03:55.725Z,14.53
2022-10-31T18:06:23.793Z,14.50
2022-10-31T18:08:51.837Z,14.47
2022-10-31T18:11:22.837Z,14.42
2022-10-31T18:13:56.057Z,14.38
2022-10-31T18:16:26.073Z,14.36
2022-10-31T18:18:56.196Z,14.35
2022-10-31T18:21:24.244Z,14.34
2022-10-31T18:23:55.202Z,14.32
2022-10-31T18:26:23.784Z,14.29
2022-10-31T18:28:52.215Z,14.25
2022-10-31T18:31:20.364Z,14.23
2022-10-31T18:36:23.255Z,14.16
2022-10-31T18:38:51.534Z,14.13
2022-10-31T18:41:19.817Z,14.11
2022-10-31T18:43:47.945Z,14.08
2022-10-31T18:46:17.269Z,14.04
2022-10-31T18:48:46.423Z,13.96
2022-10-31T18:51:18.321Z,13.94
2022-10-31T18:53:52.561Z,13.87
2022-10-31T18:56:20.975Z,13.83
2022-10-31T18:58:49.284Z,13.78
2022-10-31T19:01:18.453Z,13.71
2022-10-31T19:03:46.865Z,13.64
2022-10-31T19:06:16.285Z,13.61
2022-10-31T19:08:44.361Z,13.58
2022-10-31T19:11:14.344Z,13.52
2022-10-31T19:13:43.339Z,13.50
2022-10-31T19:16:13.050Z,13.51
2022-10-31T19:18:41.982Z,13.50
2022-10-31T19:21:11.745Z,13.51
2022-10-31T19:23:41.540Z,13.48
2022-10-31T19:26:09.996Z,13.47
2022-10-31T19:28:39.786Z,13.45
2022-10-31T19:31:08.492Z,13.43
2022-10-31T19:33:37.216Z,13.42
2022-10-31T19:36:08.292Z,13.35
2022-10-31T19:38:36.827Z,13.22
2022-10-31T19:41:07.560Z,12.83
2022-10-31T19:43:35.688Z,12.59
2022-10-31T19:46:04.739Z,12.72
2022-10-31T19:48:32.854Z,12.76
2022-10-31T19:51:04.919Z,12.78
2022-10-31T19:53:33.274Z,12.79
